West Lebanon, Indiana
Current Conditions -  °F | °C
As of 8:35 AM on Friday 24 Oct 2014 (Local Time) from KDNV Reporting Station
Haze Haze  
Wind Chill: 48°   Ceiling: 2200
Heat Index: 48°   Visibility: 5mi
Dew Point: 47°   Wind: 3mph
Humidity: 95%   Direction: 230°SW
Pressure: 30.07"   Gusts: NA
Location:  40.27°N, 87.39°W
Report Text: KDNV 241235Z AUTO 23003KT 5SM BR OVC022 09/08 A3007 RMK AO2 T00900082
Loading
Personal Weather Stations






























Interactive Weather Map New forecast layout! Learn more

10-Day Weather Forecast

Advertisements
Track Severe Weather on mobile